sensor_id;sensor_type;location;lat;lon;timestamp;temperature;humidity
44579;DHT22;37422;51.402;0.016;2022-10-17T00:00:05;16.70;99.90
44579;DHT22;37422;51.402;0.016;2022-10-17T00:02:35;16.80;99.90
44579;DHT22;37422;51.402;0.016;2022-10-17T00:05:03;16.70;99.90
44579;DHT22;37422;51.402;0.016;2022-10-17T00:07:31;16.80;99.90
44579;DHT22;37422;51.402;0.016;2022-10-17T00:09:59;16.70;99.90
44579;DHT22;37422;51.402;0.016;2022-10-17T00:12:30;16.70;99.90
44579;DHT22;37422;51.402;0.016;2022-10-17T00:14:58;16.70;99.90
44579;DHT22;37422;51.402;0.016;2022-10-17T00:17:26;16.70;99.90
44579;DHT22;37422;51.402;0.016;2022-10-17T00:19:59;16.70;99.90
44579;DHT22;37422;51.402;0.016;2022-10-17T00:22:27;16.70;99.90
44579;DHT22;37422;51.402;0.016;2022-10-17T00:24:55;16.70;99.90
44579;DHT22;37422;51.402;0.016;2022-10-17T00:27:23;16.70;99.90
44579;DHT22;37422;51.402;0.016;2022-10-17T00:29:52;16.60;99.90
44579;DHT22;37422;51.402;0.016;2022-10-17T00:32:21;16.60;99.90
44579;DHT22;37422;51.402;0.016;2022-10-17T00:34:49;16.60;99.90
44579;DHT22;37422;51.402;0.016;2022-10-17T00:37:17;16.60;99.90
44579;DHT22;37422;51.402;0.016;2022-10-17T00:39:45;16.70;99.90
44579;DHT22;37422;51.402;0.016;2022-10-17T00:42:13;16.70;99.90
44579;DHT22;37422;51.402;0.016;2022-10-17T00:47:14;16.70;99.90
44579;DHT22;37422;51.402;0.016;2022-10-17T00:49:51;16.70;99.90
44579;DHT22;37422;51.402;0.016;2022-10-17T00:52:27;16.70;99.90
44579;DHT22;37422;51.402;0.016;2022-10-17T00:55:19;16.70;99.90
44579;DHT22;37422;51.402;0.016;2022-10-17T00:57:47;16.70;99.90
44579;DHT22;37422;51.402;0.016;2022-10-17T01:00:18;16.70;99.90
44579;DHT22;37422;51.402;0.016;2022-10-17T01:02:47;16.70;99.90
44579;DHT22;37422;51.402;0.016;2022-10-17T01:05:17;16.70;99.90
44579;DHT22;37422;51.402;0.016;2022-10-17T01:07:47;16.60;99.90
44579;DHT22;37422;51.402;0.016;2022-10-17T01:10:16;16.60;99.90
44579;DHT22;37422;51.402;0.016;2022-10-17T01:15:58;16.50;99.90
44579;DHT22;37422;51.402;0.016;2022-10-17T01:32:41;16.40;99.90
44579;DHT22;37422;51.402;0.016;2022-10-17T01:37:55;16.40;99.90
44579;DHT22;37422;51.402;0.016;2022-10-17T01:40:35;16.40;99.90
44579;DHT22;37422;51.402;0.016;2022-10-17T01:43:33;16.30;99.90
44579;DHT22;37422;51.402;0.016;2022-10-17T01:48:44;16.30;99.90
44579;DHT22;37422;51.402;0.016;2022-10-17T01:51:16;16.20;99.90
44579;DHT22;37422;51.402;0.016;2022-10-17T01:54:15;16.20;99.90
44579;DHT22;37422;51.402;0.016;2022-10-17T01:56:40;16.20;99.90
44579;DHT22;37422;51.402;0.016;2022-10-17T01:59:16;16.20;99.90
44579;DHT22;37422;51.402;0.016;2022-10-17T02:01:48;16.20;99.90
44579;DHT22;37422;51.402;0.016;2022-10-17T02:04:17;16.20;99.90
44579;DHT22;37422;51.402;0.016;2022-10-17T02:06:45;16.30;99.90
44579;DHT22;37422;51.402;0.016;2022-10-17T02:09:23;16.30;99.90
44579;DHT22;37422;51.402;0.016;2022-10-17T02:20:50;16.50;99.90
44579;DHT22;37422;51.402;0.016;2022-10-17T02:23:33;16.50;99.90
44579;DHT22;37422;51.402;0.016;2022-10-17T02:26:10;16.50;99.90
44579;DHT22;37422;51.402;0.016;2022-10-17T02:29:04;16.50;99.90
44579;DHT22;37422;51.402;0.016;2022-10-17T02:31:57;16.50;99.90
44579;DHT22;37422;51.402;0.016;2022-10-17T02:34:40;16.50;99.90
44579;DHT22;37422;51.402;0.016;2022-10-17T02:37:12;16.50;99.90
44579;DHT22;37422;51.402;0.016;2022-10-17T02:39:42;16.50;99.90
44579;DHT22;37422;51.402;0.016;2022-10-17T02:42:13;16.40;99.90
44579;DHT22;37422;51.402;0.016;2022-10-17T02:44:43;16.40;99.90
44579;DHT22;37422;51.402;0.016;2022-10-17T02:47:22;16.40;99.90
44579;DHT22;37422;51.402;0.016;2022-10-17T02:49:54;16.40;99.90
44579;DHT22;37422;51.402;0.016;2022-10-17T02:57:36;16.40;99.90
44579;DHT22;37422;51.402;0.016;2022-10-17T03:00:09;16.40;99.90
44579;DHT22;37422;51.402;0.016;2022-10-17T03:02:42;16.40;99.90
44579;DHT22;37422;51.402;0.016;2022-10-17T03:05:11;16.40;99.90
44579;DHT22;37422;51.402;0.016;2022-10-17T03:07:39;16.40;99.90
44579;DHT22;37422;51.402;0.016;2022-10-17T03:10:07;16.40;99.90
44579;DHT22;37422;51.402;0.016;2022-10-17T03:12:35;16.40;99.90
44579;DHT22;37422;51.402;0.016;2022-10-17T03:15:03;16.30;99.90
44579;DHT22;37422;51.402;0.016;2022-10-17T03:17:31;16.30;99.90
44579;DHT22;37422;51.402;0.016;2022-10-17T03:19:59;16.30;99.90
44579;DHT22;37422;51.402;0.016;2022-10-17T03:22:30;16.30;99.90
44579;DHT22;37422;51.402;0.016;2022-10-17T03:25:00;16.30;99.90
44579;DHT22;37422;51.402;0.016;2022-10-17T03:27:28;16.30;99.90
44579;DHT22;37422;51.402;0.016;2022-10-17T03:29:59;16.30;99.90
44579;DHT22;37422;51.402;0.016;2022-10-17T03:32:27;16.30;99.90
44579;DHT22;37422;51.402;0.016;2022-10-17T03:34:55;16.30;99.90
44579;DHT22;37422;51.402;0.016;2022-10-17T03:37:23;16.20;99.90
44579;DHT22;37422;51.402;0.016;2022-10-17T03:39:51;16.20;99.90
44579;DHT22;37422;51.402;0.016;2022-10-17T03:42:19;16.20;99.90
44579;DHT22;37422;51.402;0.016;2022-10-17T03:44:47;16.20;99.90
44579;DHT22;37422;51.402;0.016;2022-10-17T03:47:15;16.10;99.90
44579;DHT22;37422;51.402;0.016;2022-10-17T03:49:44;16.20;99.90
44579;DHT22;37422;51.402;0.016;2022-10-17T03:52:12;16.20;99.90
44579;DHT22;37422;51.402;0.016;2022-10-17T03:54:40;16.20;99.90
44579;DHT22;37422;51.402;0.016;2022-10-17T03:57:08;16.20;99.90
44579;DHT22;37422;51.402;0.016;2022-10-17T03:59:36;16.20;99.90
44579;DHT22;37422;51.402;0.016;2022-10-17T04:02:11;16.20;99.90
44579;DHT22;37422;51.402;0.016;2022-10-17T04:04:38;16.30;99.90
44579;DHT22;37422;51.402;0.016;2022-10-17T04:07:06;16.30;99.90
44579;DHT22;37422;51.402;0.016;2022-10-17T04:09:39;16.30;99.90
44579;DHT22;37422;51.402;0.016;2022-10-17T04:12:17;16.30;99.90
44579;DHT22;37422;51.402;0.016;2022-10-17T04:14:45;16.30;99.90
44579;DHT22;37422;51.402;0.016;2022-10-17T04:17:14;16.30;99.90
44579;DHT22;37422;51.402;0.016;2022-10-17T04:19:42;16.30;99.90
44579;DHT22;37422;51.402;0.016;2022-10-17T04:22:10;16.40;99.90
44579;DHT22;37422;51.402;0.016;2022-10-17T04:24:39;16.30;99.90
44579;DHT22;37422;51.402;0.016;2022-10-17T04:27:09;16.40;99.90
44579;DHT22;37422;51.402;0.016;2022-10-17T04:29:41;16.40;99.90
44579;DHT22;37422;51.402;0.016;2022-10-17T04:32:16;16.40;99.90
44579;DHT22;37422;51.402;0.016;2022-10-17T04:34:51;16.40;99.90
44579;DHT22;37422;51.402;0.016;2022-10-17T04:37:21;16.40;99.90
44579;DHT22;37422;51.402;0.016;2022-10-17T04:39:51;16.40;99.90
44579;DHT22;37422;51.402;0.016;2022-10-17T04:42:19;16.40;99.90
44579;DHT22;37422;51.402;0.016;2022-10-17T04:44:49;16.40;99.90
44579;DHT22;37422;51.402;0.016;2022-10-17T04:47:18;16.30;99.90
44579;DHT22;37422;51.402;0.016;2022-10-17T04:49:46;16.30;99.90
44579;DHT22;37422;51.402;0.016;2022-10-17T04:52:15;16.30;99.90
44579;DHT22;37422;51.402;0.016;2022-10-17T04:54:44;16.30;99.90
44579;DHT22;37422;51.402;0.016;2022-10-17T04:57:13;16.30;99.90
44579;DHT22;37422;51.402;0.016;2022-10-17T04:59:49;16.30;99.90
44579;DHT22;37422;51.402;0.016;2022-10-17T05:02:26;16.30;99.90
44579;DHT22;37422;51.402;0.016;2022-10-17T05:04:55;16.30;99.90
44579;DHT22;37422;51.402;0.016;2022-10-17T05:07:23;16.30;99.90
44579;DHT22;37422;51.402;0.016;2022-10-17T05:10:09;16.20;99.90
44579;DHT22;37422;51.402;0.016;2022-10-17T05:12:39;16.20;99.90
44579;DHT22;37422;51.402;0.016;2022-10-17T05:15:07;16.20;99.90
44579;DHT22;37422;51.402;0.016;2022-10-17T05:17:35;16.20;99.90
44579;DHT22;37422;51.402;0.016;2022-10-17T05:20:05;16.20;99.90
44579;DHT22;37422;51.402;0.016;2022-10-17T05:22:35;16.10;99.90
44579;DHT22;37422;51.402;0.016;2022-10-17T05:25:08;16.10;99.90
44579;DHT22;37422;51.402;0.016;2022-10-17T05:27:36;16.10;99.90
44579;DHT22;37422;51.402;0.016;2022-10-17T05:30:05;16.10;99.90
44579;DHT22;37422;51.402;0.016;2022-10-17T05:32:35;16.10;99.90
44579;DHT22;37422;51.402;0.016;2022-10-17T05:35:03;16.00;99.90
44579;DHT22;37422;51.402;0.016;2022-10-17T05:37:32;16.00;99.90
44579;DHT22;37422;51.402;0.016;2022-10-17T05:40:02;16.00;99.90
44579;DHT22;37422;51.402;0.016;2022-10-17T05:42:31;16.00;99.90
44579;DHT22;37422;51.402;0.016;2022-10-17T05:44:59;15.90;99.90
44579;DHT22;37422;51.402;0.016;2022-10-17T05:47:27;15.90;99.90
44579;DHT22;37422;51.402;0.016;2022-10-17T05:49:56;15.80;99.90
44579;DHT22;37422;51.402;0.016;2022-10-17T05:52:30;15.80;99.90
44579;DHT22;37422;51.402;0.016;2022-10-17T05:55:09;15.80;99.90
44579;DHT22;37422;51.402;0.016;2022-10-17T05:57:39;15.80;99.90
44579;DHT22;37422;51.402;0.016;2022-10-17T06:00:13;15.70;99.90
44579;DHT22;37422;51.402;0.016;2022-10-17T06:02:43;15.70;99.90
44579;DHT22;37422;51.402;0.016;2022-10-17T06:05:15;15.70;99.90
44579;DHT22;37422;51.402;0.016;2022-10-17T06:07:44;15.60;99.90
44579;DHT22;37422;51.402;0.016;2022-10-17T06:10:13;15.60;99.90
44579;DHT22;37422;51.402;0.016;2022-10-17T06:12:43;15.60;99.90
44579;DHT22;37422;51.402;0.016;2022-10-17T06:15:12;15.60;99.90
44579;DHT22;37422;51.402;0.016;2022-10-17T06:17:43;15.60;99.90
44579;DHT22;37422;51.402;0.016;2022-10-17T06:20:11;15.60;99.90
44579;DHT22;37422;51.402;0.016;2022-10-17T06:22:40;15.60;99.90
44579;DHT22;37422;51.402;0.016;2022-10-17T06:25:19;15.60;99.90
44579;DHT22;37422;51.402;0.016;2022-10-17T06:27:47;15.70;99.90
44579;DHT22;37422;51.402;0.016;2022-10-17T06:30:15;15.50;99.90
44579;DHT22;37422;51.402;0.016;2022-10-17T06:32:46;15.50;99.90
44579;DHT22;37422;51.402;0.016;2022-10-17T06:35:15;15.50;99.90
44579;DHT22;37422;51.402;0.016;2022-10-17T06:37:47;15.50;99.90
44579;DHT22;37422;51.402;0.016;2022-10-17T06:40:15;15.50;99.90
44579;DHT22;37422;51.402;0.016;2022-10-17T06:42:44;15.40;99.90
44579;DHT22;37422;51.402;0.016;2022-10-17T06:45:31;15.40;99.90
44579;DHT22;37422;51.402;0.016;2022-10-17T06:48:28;15.50;99.90
44579;DHT22;37422;51.402;0.016;2022-10-17T06:51:38;15.30;99.90
44579;DHT22;37422;51.402;0.016;2022-10-17T06:54:11;15.30;99.90
44579;DHT22;37422;51.402;0.016;2022-10-17T06:56:48;15.30;99.90
44579;DHT22;37422;51.402;0.016;2022-10-17T06:59:25;15.30;99.90
44579;DHT22;37422;51.402;0.016;2022-10-17T07:02:04;15.30;99.90
44579;DHT22;37422;51.402;0.016;2022-10-17T07:04:33;15.30;99.90
44579;DHT22;37422;51.402;0.016;2022-10-17T07:15:44;15.40;99.90
44579;DHT22;37422;51.402;0.016;2022-10-17T07:18:17;15.30;99.90
44579;DHT22;37422;51.402;0.016;2022-10-17T07:20:52;15.30;99.90
44579;DHT22;37422;51.402;0.016;2022-10-17T07:23:21;15.30;99.90
44579;DHT22;37422;51.402;0.016;2022-10-17T07:25:49;15.20;99.90
44579;DHT22;37422;51.402;0.016;2022-10-17T07:28:18;15.20;99.90
44579;DHT22;37422;51.402;0.016;2022-10-17T07:30:52;15.30;99.90
44579;DHT22;37422;51.402;0.016;2022-10-17T07:33:21;15.20;99.90
44579;DHT22;37422;51.402;0.016;2022-10-17T07:35:49;15.20;99.90
44579;DHT22;37422;51.402;0.016;2022-10-17T07:38:22;15.20;99.90
44579;DHT22;37422;51.402;0.016;2022-10-17T07:40:58;15.20;99.90
44579;DHT22;37422;51.402;0.016;2022-10-17T07:43:27;15.20;99.90
44579;DHT22;37422;51.402;0.016;2022-10-17T07:45:55;15.20;99.90
44579;DHT22;37422;51.402;0.016;2022-10-17T07:48:23;15.20;99.90
44579;DHT22;37422;51.402;0.016;2022-10-17T07:50:52;15.20;99.90
44579;DHT22;37422;51.402;0.016;2022-10-17T07:53:21;15.20;99.90
44579;DHT22;37422;51.402;0.016;2022-10-17T07:55:49;15.30;99.90
44579;DHT22;37422;51.402;0.016;2022-10-17T07:58:17;15.30;99.90
44579;DHT22;37422;51.402;0.016;2022-10-17T08:00:45;15.40;99.90
44579;DHT22;37422;51.402;0.016;2022-10-17T08:03:17;15.40;99.90
44579;DHT22;37422;51.402;0.016;2022-10-17T08:05:45;15.50;99.90
44579;DHT22;37422;51.402;0.016;2022-10-17T08:08:13;15.50;99.90
44579;DHT22;37422;51.402;0.016;2022-10-17T08:10:41;15.50;99.90
44579;DHT22;37422;51.402;0.016;2022-10-17T08:13:09;15.50;99.90
44579;DHT22;37422;51.402;0.016;2022-10-17T08:15:40;15.50;99.90
44579;DHT22;37422;51.402;0.016;2022-10-17T08:18:08;15.50;99.90
44579;DHT22;37422;51.402;0.016;2022-10-17T08:20:36;15.60;99.90
44579;DHT22;37422;51.402;0.016;2022-10-17T08:23:04;15.60;99.90
44579;DHT22;37422;51.402;0.016;2022-10-17T08:25:33;15.60;99.90
44579;DHT22;37422;51.402;0.016;2022-10-17T08:28:01;15.70;99.90
44579;DHT22;37422;51.402;0.016;2022-10-17T08:30:32;15.70;99.90
44579;DHT22;37422;51.402;0.016;2022-10-17T08:33:00;15.70;99.90
44579;DHT22;37422;51.402;0.016;2022-10-17T08:35:28;15.70;99.90
44579;DHT22;37422;51.402;0.016;2022-10-17T08:37:58;15.70;99.90
44579;DHT22;37422;51.402;0.016;2022-10-17T08:40:30;15.80;99.90
44579;DHT22;37422;51.402;0.016;2022-10-17T08:45:39;15.90;99.90
44579;DHT22;37422;51.402;0.016;2022-10-17T08:48:17;15.90;99.90
44579;DHT22;37422;51.402;0.016;2022-10-17T08:50:55;15.90;99.90
44579;DHT22;37422;51.402;0.016;2022-10-17T08:53:35;15.90;99.90
44579;DHT22;37422;51.402;0.016;2022-10-17T08:56:17;15.90;99.90
44579;DHT22;37422;51.402;0.016;2022-10-17T08:58:51;16.00;99.90
44579;DHT22;37422;51.402;0.016;2022-10-17T09:06:58;16.10;99.90
44579;DHT22;37422;51.402;0.016;2022-10-17T09:12:49;16.40;99.90
44579;DHT22;37422;51.402;0.016;2022-10-17T09:15:48;16.50;99.90
44579;DHT22;37422;51.402;0.016;2022-10-17T09:21:24;16.90;99.90
44579;DHT22;37422;51.402;0.016;2022-10-17T09:23:57;17.00;99.90
44579;DHT22;37422;51.402;0.016;2022-10-17T09:26:38;17.20;99.90
44579;DHT22;37422;51.402;0.016;2022-10-17T09:29:17;17.20;99.90
44579;DHT22;37422;51.402;0.016;2022-10-17T09:32:00;17.20;99.90
44579;DHT22;37422;51.402;0.016;2022-10-17T09:34:31;17.20;99.90
44579;DHT22;37422;51.402;0.016;2022-10-17T09:36:59;17.30;99.90
44579;DHT22;37422;51.402;0.016;2022-10-17T09:39:28;17.30;99.90
44579;DHT22;37422;51.402;0.016;2022-10-17T09:42:00;17.30;99.90
44579;DHT22;37422;51.402;0.016;2022-10-17T09:44:32;17.40;99.90
44579;DHT22;37422;51.402;0.016;2022-10-17T09:49:37;17.30;99.90
44579;DHT22;37422;51.402;0.016;2022-10-17T09:54:44;17.40;99.90
44579;DHT22;37422;51.402;0.016;2022-10-17T09:57:14;17.40;99.90
44579;DHT22;37422;51.402;0.016;2022-10-17T10:00:04;17.40;99.90
44579;DHT22;37422;51.402;0.016;2022-10-17T10:02:39;17.40;99.90
44579;DHT22;37422;51.402;0.016;2022-10-17T10:05:18;17.50;99.90
44579;DHT22;37422;51.402;0.016;2022-10-17T10:08:13;17.70;99.90
44579;DHT22;37422;51.402;0.016;2022-10-17T10:11:06;17.80;99.90
44579;DHT22;37422;51.402;0.016;2022-10-17T10:13:40;18.00;99.90
44579;DHT22;37422;51.402;0.016;2022-10-17T10:16:29;18.20;99.90
44579;DHT22;37422;51.402;0.016;2022-10-17T10:18:58;18.50;99.90
44579;DHT22;37422;51.402;0.016;2022-10-17T10:21:26;18.70;99.90
44579;DHT22;37422;51.402;0.016;2022-10-17T10:24:05;18.90;99.90
44579;DHT22;37422;51.402;0.016;2022-10-17T10:26:47;19.10;99.90
44579;DHT22;37422;51.402;0.016;2022-10-17T10:29:22;19.20;99.90
44579;DHT22;37422;51.402;0.016;2022-10-17T10:31:52;19.30;99.90
44579;DHT22;37422;51.402;0.016;2022-10-17T10:34:25;19.50;99.90
44579;DHT22;37422;51.402;0.016;2022-10-17T10:37:06;19.70;99.90
44579;DHT22;37422;51.402;0.016;2022-10-17T10:39:53;19.90;99.90
44579;DHT22;37422;51.402;0.016;2022-10-17T10:42:34;20.30;99.90
44579;DHT22;37422;51.402;0.016;2022-10-17T10:45:10;20.60;99.90
44579;DHT22;37422;51.402;0.016;2022-10-17T10:48:34;20.80;99.90
44579;DHT22;37422;51.402;0.016;2022-10-17T10:51:16;21.00;99.90
44579;DHT22;37422;51.402;0.016;2022-10-17T10:53:51;21.10;99.90
44579;DHT22;37422;51.402;0.016;2022-10-17T10:56:23;21.30;99.90
44579;DHT22;37422;51.402;0.016;2022-10-17T10:59:15;21.40;99.90
44579;DHT22;37422;51.402;0.016;2022-10-17T11:01:55;21.50;99.90
44579;DHT22;37422;51.402;0.016;2022-10-17T11:04:55;21.40;99.90
44579;DHT22;37422;51.402;0.016;2022-10-17T11:07:28;21.40;99.90
44579;DHT22;37422;51.402;0.016;2022-10-17T11:10:13;21.20;99.90
44579;DHT22;37422;51.402;0.016;2022-10-17T11:20:35;21.10;99.90
44579;DHT22;37422;51.402;0.016;2022-10-17T11:23:22;21.10;99.90
44579;DHT22;37422;51.402;0.016;2022-10-17T11:25:52;21.10;99.90
44579;DHT22;37422;51.402;0.016;2022-10-17T11:28:22;21.30;99.90
44579;DHT22;37422;51.402;0.016;2022-10-17T11:36:07;22.00;99.90
44579;DHT22;37422;51.402;0.016;2022-10-17T11:38:57;22.30;99.90
44579;DHT22;37422;51.402;0.016;2022-10-17T11:41:41;22.50;97.50
44579;DHT22;37422;51.402;0.016;2022-10-17T11:44:36;22.40;98.40
44579;DHT22;37422;51.402;0.016;2022-10-17T11:47:13;22.30;98.50
44579;DHT22;37422;51.402;0.016;2022-10-17T11:49:51;22.00;98.40
44579;DHT22;37422;51.402;0.016;2022-10-17T11:52:40;21.70;98.80
44579;DHT22;37422;51.402;0.016;2022-10-17T11:55:27;21.50;97.30
44579;DHT22;37422;51.402;0.016;2022-10-17T12:01:40;21.30;98.90
44579;DHT22;37422;51.402;0.016;2022-10-17T12:04:48;21.30;98.50
44579;DHT22;37422;51.402;0.016;2022-10-17T12:10:16;21.40;99.00
44579;DHT22;37422;51.402;0.016;2022-10-17T12:12:46;21.40;99.60
44579;DHT22;37422;51.402;0.016;2022-10-17T12:18:00;21.40;98.00
44579;DHT22;37422;51.402;0.016;2022-10-17T12:20:31;21.30;97.90
44579;DHT22;37422;51.402;0.016;2022-10-17T12:23:04;21.20;99.00
44579;DHT22;37422;51.402;0.016;2022-10-17T12:25:34;21.20;98.80
44579;DHT22;37422;51.402;0.016;2022-10-17T12:38:45;22.00;98.00
44579;DHT22;37422;51.402;0.016;2022-10-17T12:46:46;21.90;95.90
44579;DHT22;37422;51.402;0.016;2022-10-17T12:49:43;22.00;97.00
44579;DHT22;37422;51.402;0.016;2022-10-17T12:58:00;22.40;96.00
44579;DHT22;37422;51.402;0.016;2022-10-17T13:00:55;22.20;93.80
44579;DHT22;37422;51.402;0.016;2022-10-17T13:03:46;21.80;94.90
44579;DHT22;37422;51.402;0.016;2022-10-17T13:06:35;21.40;96.40
44579;DHT22;37422;51.402;0.016;2022-10-17T13:09:14;21.00;95.80
44579;DHT22;37422;51.402;0.016;2022-10-17T13:11:44;20.80;97.00
44579;DHT22;37422;51.402;0.016;2022-10-17T13:14:13;20.50;96.10
44579;DHT22;37422;51.402;0.016;2022-10-17T13:17:00;20.30;97.20
44579;DHT22;37422;51.402;0.016;2022-10-17T13:19:42;20.20;97.30
44579;DHT22;37422;51.402;0.016;2022-10-17T13:22:21;20.00;97.60
44579;DHT22;37422;51.402;0.016;2022-10-17T13:24:51;19.90;97.90
44579;DHT22;37422;51.402;0.016;2022-10-17T13:27:32;19.90;98.00
44579;DHT22;37422;51.402;0.016;2022-10-17T13:30:16;19.90;98.40
44579;DHT22;37422;51.402;0.016;2022-10-17T13:32:46;20.00;98.60
44579;DHT22;37422;51.402;0.016;2022-10-17T13:35:27;20.00;98.70
44579;DHT22;37422;51.402;0.016;2022-10-17T13:38:24;20.00;98.50
44579;DHT22;37422;51.402;0.016;2022-10-17T13:40:58;20.10;98.40
44579;DHT22;37422;51.402;0.016;2022-10-17T13:43:49;20.00;98.40
44579;DHT22;37422;51.402;0.016;2022-10-17T13:46:27;19.90;97.80
44579;DHT22;37422;51.402;0.016;2022-10-17T13:49:18;19.80;98.10
44579;DHT22;37422;51.402;0.016;2022-10-17T13:51:53;19.80;98.10
44579;DHT22;37422;51.402;0.016;2022-10-17T13:57:03;19.70;98.40
44579;DHT22;37422;51.402;0.016;2022-10-17T13:59:39;19.70;98.40
44579;DHT22;37422;51.402;0.016;2022-10-17T14:02:17;19.70;98.10
44579;DHT22;37422;51.402;0.016;2022-10-17T14:04:46;19.60;98.00
44579;DHT22;37422;51.402;0.016;2022-10-17T14:10:36;19.60;98.50
44579;DHT22;37422;51.402;0.016;2022-10-17T14:13:06;19.50;98.20
44579;DHT22;37422;51.402;0.016;2022-10-17T14:15:35;19.50;98.40
44579;DHT22;37422;51.402;0.016;2022-10-17T14:18:07;19.50;98.30
44579;DHT22;37422;51.402;0.016;2022-10-17T14:20:36;19.50;98.50
44579;DHT22;37422;51.402;0.016;2022-10-17T14:26:19;19.50;98.50
44579;DHT22;37422;51.402;0.016;2022-10-17T14:29:19;19.50;98.10
44579;DHT22;37422;51.402;0.016;2022-10-17T14:31:47;19.40;97.90
44579;DHT22;37422;51.402;0.016;2022-10-17T14:34:25;19.40;98.20
44579;DHT22;37422;51.402;0.016;2022-10-17T14:36:53;19.30;97.80
44579;DHT22;37422;51.402;0.016;2022-10-17T14:39:23;19.20;98.30
44579;DHT22;37422;51.402;0.016;2022-10-17T14:41:52;19.10;98.40
44579;DHT22;37422;51.402;0.016;2022-10-17T14:44:26;19.00;97.80
44579;DHT22;37422;51.402;0.016;2022-10-17T14:46:59;18.90;98.40
44579;DHT22;37422;51.402;0.016;2022-10-17T14:49:50;18.80;98.40
44579;DHT22;37422;51.402;0.016;2022-10-17T14:54:47;18.70;98.70
44579;DHT22;37422;51.402;0.016;2022-10-17T14:59:58;18.60;99.10
44579;DHT22;37422;51.402;0.016;2022-10-17T15:02:28;18.60;99.20
44579;DHT22;37422;51.402;0.016;2022-10-17T15:04:59;18.60;99.10
44579;DHT22;37422;51.402;0.016;2022-10-17T15:07:27;18.60;99.10
44579;DHT22;37422;51.402;0.016;2022-10-17T15:09:55;18.60;99.20
44579;DHT22;37422;51.402;0.016;2022-10-17T15:12:24;18.60;98.70
44579;DHT22;37422;51.402;0.016;2022-10-17T15:14:52;18.60;99.10
44579;DHT22;37422;51.402;0.016;2022-10-17T15:17:25;18.60;98.30
44579;DHT22;37422;51.402;0.016;2022-10-17T15:19:53;18.60;98.90
44579;DHT22;37422;51.402;0.016;2022-10-17T15:22:22;18.50;98.80
44579;DHT22;37422;51.402;0.016;2022-10-17T15:24:50;18.50;98.90
44579;DHT22;37422;51.402;0.016;2022-10-17T15:27:20;18.40;98.90
44579;DHT22;37422;51.402;0.016;2022-10-17T15:29:49;18.40;98.90
44579;DHT22;37422;51.402;0.016;2022-10-17T15:32:18;18.30;99.10
44579;DHT22;37422;51.402;0.016;2022-10-17T15:34:46;18.20;98.90
44579;DHT22;37422;51.402;0.016;2022-10-17T15:37:19;18.20;98.80
44579;DHT22;37422;51.402;0.016;2022-10-17T15:39:52;18.10;98.60
44579;DHT22;37422;51.402;0.016;2022-10-17T15:42:25;18.10;98.70
44579;DHT22;37422;51.402;0.016;2022-10-17T15:44:54;18.00;98.50
44579;DHT22;37422;51.402;0.016;2022-10-17T15:47:30;18.00;98.20
44579;DHT22;37422;51.402;0.016;2022-10-17T15:50:01;18.00;98.20
44579;DHT22;37422;51.402;0.016;2022-10-17T15:52:29;18.00;98.20
44579;DHT22;37422;51.402;0.016;2022-10-17T15:54:57;18.00;97.50
44579;DHT22;37422;51.402;0.016;2022-10-17T15:57:34;18.00;98.00
44579;DHT22;37422;51.402;0.016;2022-10-17T16:00:10;18.00;98.20
44579;DHT22;37422;51.402;0.016;2022-10-17T16:02:43;18.00;96.50
44579;DHT22;37422;51.402;0.016;2022-10-17T16:05:20;18.00;97.50
44579;DHT22;37422;51.402;0.016;2022-10-17T16:07:56;17.90;95.50
44579;DHT22;37422;51.402;0.016;2022-10-17T16:10:24;17.90;97.60
44579;DHT22;37422;51.402;0.016;2022-10-17T16:12:55;17.80;97.70
44579;DHT22;37422;51.402;0.016;2022-10-17T16:15:25;17.70;96.30
44579;DHT22;37422;51.402;0.016;2022-10-17T16:17:55;17.70;97.10
44579;DHT22;37422;51.402;0.016;2022-10-17T16:20:25;17.60;97.00
44579;DHT22;37422;51.402;0.016;2022-10-17T16:22:54;17.60;96.90
44579;DHT22;37422;51.402;0.016;2022-10-17T16:25:27;17.50;97.00
44579;DHT22;37422;51.402;0.016;2022-10-17T16:27:57;17.50;97.20
44579;DHT22;37422;51.402;0.016;2022-10-17T16:30:27;17.30;97.30
44579;DHT22;37422;51.402;0.016;2022-10-17T16:32:55;17.30;97.40
44579;DHT22;37422;51.402;0.016;2022-10-17T16:35:26;17.20;97.50
44579;DHT22;37422;51.402;0.016;2022-10-17T16:38:01;17.10;97.50
44579;DHT22;37422;51.402;0.016;2022-10-17T16:40:29;17.00;97.60
44579;DHT22;37422;51.402;0.016;2022-10-17T16:42:57;16.90;97.70
44579;DHT22;37422;51.402;0.016;2022-10-17T16:45:25;16.80;97.80
44579;DHT22;37422;51.402;0.016;2022-10-17T16:47:54;16.70;97.90
44579;DHT22;37422;51.402;0.016;2022-10-17T16:50:22;16.60;98.10
44579;DHT22;37422;51.402;0.016;2022-10-17T16:52:50;16.50;98.30
44579;DHT22;37422;51.402;0.016;2022-10-17T16:55:18;16.40;98.50
44579;DHT22;37422;51.402;0.016;2022-10-17T16:57:47;16.30;98.90
44579;DHT22;37422;51.402;0.016;2022-10-17T17:00:16;16.20;99.30
44579;DHT22;37422;51.402;0.016;2022-10-17T17:02:46;16.10;99.50
44579;DHT22;37422;51.402;0.016;2022-10-17T17:05:15;15.90;99.80
44579;DHT22;37422;51.402;0.016;2022-10-17T17:07:43;15.80;99.90
44579;DHT22;37422;51.402;0.016;2022-10-17T17:10:16;15.70;99.90
44579;DHT22;37422;51.402;0.016;2022-10-17T17:12:43;15.70;99.90
44579;DHT22;37422;51.402;0.016;2022-10-17T17:15:11;15.60;99.90
44579;DHT22;37422;51.402;0.016;2022-10-17T17:17:39;15.60;99.90
44579;DHT22;37422;51.402;0.016;2022-10-17T17:20:24;15.50;99.90
44579;DHT22;37422;51.402;0.016;2022-10-17T17:22:52;15.40;99.90
44579;DHT22;37422;51.402;0.016;2022-10-17T17:25:24;15.40;99.90
44579;DHT22;37422;51.402;0.016;2022-10-17T17:27:51;15.40;99.90
44579;DHT22;37422;51.402;0.016;2022-10-17T17:30:20;15.30;99.90
44579;DHT22;37422;51.402;0.016;2022-10-17T17:32:47;15.20;99.90
44579;DHT22;37422;51.402;0.016;2022-10-17T17:35:15;15.20;99.90
44579;DHT22;37422;51.402;0.016;2022-10-17T17:37:43;15.20;99.90
44579;DHT22;37422;51.402;0.016;2022-10-17T17:40:12;15.20;99.90
44579;DHT22;37422;51.402;0.016;2022-10-17T17:42:43;15.20;99.90
44579;DHT22;37422;51.402;0.016;2022-10-17T17:45:11;15.10;99.90
44579;DHT22;37422;51.402;0.016;2022-10-17T17:47:38;15.10;99.90
44579;DHT22;37422;51.402;0.016;2022-10-17T17:50:14;15.10;99.90
44579;DHT22;37422;51.402;0.016;2022-10-17T17:52:42;15.00;99.90
44579;DHT22;37422;51.402;0.016;2022-10-17T17:55:12;15.00;99.90
44579;DHT22;37422;51.402;0.016;2022-10-17T17:57:41;14.90;99.90
44579;DHT22;37422;51.402;0.016;2022-10-17T18:00:09;14.90;99.90
44579;DHT22;37422;51.402;0.016;2022-10-17T18:02:37;14.80;99.90
44579;DHT22;37422;51.402;0.016;2022-10-17T18:05:10;14.90;99.90
44579;DHT22;37422;51.402;0.016;2022-10-17T18:07:38;14.80;99.90
44579;DHT22;37422;51.402;0.016;2022-10-17T18:10:07;14.80;99.90
44579;DHT22;37422;51.402;0.016;2022-10-17T18:12:35;14.70;99.90